sensor_id;sensor_type;location;lat;lon;timestamp;pressure;altitude;pressure_sealevel;temperature;humidity
71697;BME280;68167;59.120;37.898;2024-01-06T00:00:02;99849.50;;;-25.23;63.05
71697;BME280;68167;59.120;37.898;2024-01-06T00:02:39;99837.00;;;-25.26;63.19
71697;BME280;68167;59.120;37.898;2024-01-06T00:05:06;99878.34;;;-25.02;62.90
71697;BME280;68167;59.120;37.898;2024-01-06T00:07:32;99938.56;;;-24.65;63.44
71697;BME280;68167;59.120;37.898;2024-01-06T00:09:59;99880.84;;;-25.02;62.99
71697;BME280;68167;59.120;37.898;2024-01-06T00:12:25;99934.44;;;-24.68;62.70
71697;BME280;68167;59.120;37.898;2024-01-06T00:14:53;99896.63;;;-24.97;62.31
71697;BME280;68167;59.120;37.898;2024-01-06T00:17:19;99940.47;;;-24.75;62.75
71697;BME280;68167;59.120;37.898;2024-01-06T00:19:46;99943.75;;;-24.71;62.83
71697;BME280;68167;59.120;37.898;2024-01-06T00:22:18;99955.81;;;-24.50;63.20
71697;BME280;68167;59.120;37.898;2024-01-06T00:24:44;99919.38;;;-24.68;63.14
71697;BME280;68167;59.120;37.898;2024-01-06T00:27:11;99959.84;;;-24.43;63.27
71697;BME280;68167;59.120;37.898;2024-01-06T00:29:38;99901.22;;;-24.79;63.16
71697;BME280;68167;59.120;37.898;2024-01-06T00:32:05;99944.94;;;-24.51;62.88
71697;BME280;68167;59.120;37.898;2024-01-06T00:34:31;99978.00;;;-24.30;63.29
71697;BME280;68167;59.120;37.898;2024-01-06T00:36:58;99957.16;;;-24.35;62.82
71697;BME280;68167;59.120;37.898;2024-01-06T00:39:24;99974.69;;;-24.32;63.18
71697;BME280;68167;59.120;37.898;2024-01-06T00:41:51;99984.59;;;-24.26;63.25
71697;BME280;68167;59.120;37.898;2024-01-06T00:44:17;99901.94;;;-24.74;62.93
71697;BME280;68167;59.120;37.898;2024-01-06T00:46:45;99915.03;;;-24.61;62.82
71697;BME280;68167;59.120;37.898;2024-01-06T00:49:11;99937.31;;;-24.46;63.29
71697;BME280;68167;59.120;37.898;2024-01-06T00:51:38;99977.16;;;-24.31;63.06
71697;BME280;68167;59.120;37.898;2024-01-06T00:54:04;99901.03;;;-24.70;62.83
71697;BME280;68167;59.120;37.898;2024-01-06T00:56:30;99938.84;;;-24.41;63.21
71697;BME280;68167;59.120;37.898;2024-01-06T00:58:57;99847.97;;;-24.93;63.33
71697;BME280;68167;59.120;37.898;2024-01-06T01:01:23;99898.31;;;-24.62;63.14
71697;BME280;68167;59.120;37.898;2024-01-06T01:03:50;99956.91;;;-24.25;63.22
71697;BME280;68167;59.120;37.898;2024-01-06T01:06:16;99918.16;;;-24.52;63.29
71697;BME280;68167;59.120;37.898;2024-01-06T01:08:43;99903.34;;;-24.62;62.83
71697;BME280;68167;59.120;37.898;2024-01-06T01:11:09;99960.41;;;-24.30;63.34
71697;BME280;68167;59.120;37.898;2024-01-06T01:13:36;99934.66;;;-24.40;63.34
71697;BME280;68167;59.120;37.898;2024-01-06T01:16:02;99937.84;;;-24.33;63.41
71697;BME280;68167;59.120;37.898;2024-01-06T01:18:29;99923.75;;;-24.39;63.56
71697;BME280;68167;59.120;37.898;2024-01-06T01:20:56;99918.56;;;-24.33;64.34
71697;BME280;68167;59.120;37.898;2024-01-06T01:23:22;99963.97;;;-24.05;64.22
71697;BME280;68167;59.120;37.898;2024-01-06T01:25:48;99850.69;;;-24.67;64.17
71697;BME280;68167;59.120;37.898;2024-01-06T01:28:15;99939.53;;;-24.01;63.97
71697;BME280;68167;59.120;37.898;2024-01-06T01:30:42;99737.47;;;-25.26;63.32
71697;BME280;68167;59.120;37.898;2024-01-06T01:33:08;99934.69;;;-24.08;63.62
71697;BME280;68167;59.120;37.898;2024-01-06T01:35:34;99907.44;;;-24.24;63.33
71697;BME280;68167;59.120;37.898;2024-01-06T01:38:00;99918.41;;;-24.25;63.21
71697;BME280;68167;59.120;37.898;2024-01-06T01:40:27;99875.59;;;-24.58;63.54
71697;BME280;68167;59.120;37.898;2024-01-06T01:42:53;99880.63;;;-24.58;63.52
71697;BME280;68167;59.120;37.898;2024-01-06T01:45:19;99928.56;;;-24.30;63.02
71697;BME280;68167;59.120;37.898;2024-01-06T01:47:46;99923.09;;;-24.47;62.87
71697;BME280;68167;59.120;37.898;2024-01-06T01:50:12;99929.66;;;-24.42;63.29
71697;BME280;68167;59.120;37.898;2024-01-06T01:52:40;99942.84;;;-24.32;63.73
71697;BME280;68167;59.120;37.898;2024-01-06T01:55:07;99923.75;;;-24.39;63.86
71697;BME280;68167;59.120;37.898;2024-01-06T01:57:33;99855.97;;;-24.76;63.53
71697;BME280;68167;59.120;37.898;2024-01-06T02:00:01;99825.47;;;-24.96;63.51
71697;BME280;68167;59.120;37.898;2024-01-06T02:02:30;99865.91;;;-24.71;63.40
71697;BME280;68167;59.120;37.898;2024-01-06T02:04:57;99926.88;;;-24.29;63.48
71697;BME280;68167;59.120;37.898;2024-01-06T02:07:23;99924.47;;;-24.34;63.82
71697;BME280;68167;59.120;37.898;2024-01-06T02:09:49;99851.72;;;-24.74;63.18
71697;BME280;68167;59.120;37.898;2024-01-06T02:12:16;99892.25;;;-24.54;63.90
71697;BME280;68167;59.120;37.898;2024-01-06T02:14:42;99864.28;;;-24.74;63.04
71697;BME280;68167;59.120;37.898;2024-01-06T02:17:09;99875.19;;;-24.75;63.05
71697;BME280;68167;59.120;37.898;2024-01-06T02:19:36;99834.84;;;-25.03;62.97
71697;BME280;68167;59.120;37.898;2024-01-06T02:22:02;99906.66;;;-24.62;63.52
71697;BME280;68167;59.120;37.898;2024-01-06T02:24:28;99915.81;;;-24.59;62.79
71697;BME280;68167;59.120;37.898;2024-01-06T02:26:55;99809.13;;;-25.13;63.20
71697;BME280;68167;59.120;37.898;2024-01-06T02:29:21;99879.50;;;-24.80;63.62
71697;BME280;68167;59.120;37.898;2024-01-06T02:31:47;99853.97;;;-24.97;63.07
71697;BME280;68167;59.120;37.898;2024-01-06T02:34:14;99925.13;;;-24.63;64.17
71697;BME280;68167;59.120;37.898;2024-01-06T02:36:40;99883.00;;;-24.87;63.32
71697;BME280;68167;59.120;37.898;2024-01-06T02:39:06;99912.81;;;-24.73;63.49
71697;BME280;68167;59.120;37.898;2024-01-06T02:41:32;99870.69;;;-24.98;63.06
71697;BME280;68167;59.120;37.898;2024-01-06T02:43:59;99871.50;;;-24.96;63.95
71697;BME280;68167;59.120;37.898;2024-01-06T02:46:28;99893.00;;;-24.86;63.64
71697;BME280;68167;59.120;37.898;2024-01-06T02:48:55;99939.28;;;-24.60;63.57
71697;BME280;68167;59.120;37.898;2024-01-06T02:51:21;99942.59;;;-24.58;63.23
71697;BME280;68167;59.120;37.898;2024-01-06T02:53:48;99900.59;;;-24.89;62.71
71697;BME280;68167;59.120;37.898;2024-01-06T02:56:14;99937.94;;;-24.73;63.17
71697;BME280;68167;59.120;37.898;2024-01-06T02:58:40;99903.44;;;-25.02;62.78
71697;BME280;68167;59.120;37.898;2024-01-06T03:01:06;99935.66;;;-24.84;63.08
71697;BME280;68167;59.120;37.898;2024-01-06T03:03:33;99914.22;;;-24.99;62.79
71697;BME280;68167;59.120;37.898;2024-01-06T03:05:59;99916.88;;;-25.05;63.23
71697;BME280;68167;59.120;37.898;2024-01-06T03:08:29;99931.75;;;-24.96;62.66
71697;BME280;68167;59.120;37.898;2024-01-06T03:10:55;99929.31;;;-25.00;62.78
71697;BME280;68167;59.120;37.898;2024-01-06T03:13:21;99937.63;;;-24.97;62.87
71697;BME280;68167;59.120;37.898;2024-01-06T03:15:48;99902.88;;;-25.17;63.14
71697;BME280;68167;59.120;37.898;2024-01-06T03:18:14;99940.16;;;-24.98;63.23
71697;BME280;68167;59.120;37.898;2024-01-06T03:20:40;99889.66;;;-25.25;63.21
71697;BME280;68167;59.120;37.898;2024-01-06T03:23:07;99876.50;;;-25.34;63.04
71697;BME280;68167;59.120;37.898;2024-01-06T03:25:33;99952.34;;;-24.82;63.93
71697;BME280;68167;59.120;37.898;2024-01-06T03:27:59;99863.78;;;-25.27;63.66
71697;BME280;68167;59.120;37.898;2024-01-06T03:30:26;99914.19;;;-24.97;63.14
71697;BME280;68167;59.120;37.898;2024-01-06T03:32:52;99852.13;;;-25.29;63.30
71697;BME280;68167;59.120;37.898;2024-01-06T03:35:19;99866.03;;;-25.15;63.82
71697;BME280;68167;59.120;37.898;2024-01-06T03:37:45;99933.88;;;-24.79;63.33
71697;BME280;68167;59.120;37.898;2024-01-06T03:40:12;99933.06;;;-24.81;63.18
71697;BME280;68167;59.120;37.898;2024-01-06T03:42:38;99923.16;;;-24.87;62.94
71697;BME280;68167;59.120;37.898;2024-01-06T03:45:05;99911.78;;;-25.02;63.02
71697;BME280;68167;59.120;37.898;2024-01-06T03:47:32;99927.53;;;-24.95;62.94
71697;BME280;68167;59.120;37.898;2024-01-06T03:49:58;99867.94;;;-25.26;63.09
71697;BME280;68167;59.120;37.898;2024-01-06T03:52:25;99905.97;;;-25.04;63.04
71697;BME280;68167;59.120;37.898;2024-01-06T03:54:51;99946.47;;;-24.81;63.42
71697;BME280;68167;59.120;37.898;2024-01-06T03:57:18;99920.69;;;-24.89;63.12
71697;BME280;68167;59.120;37.898;2024-01-06T03:59:44;99921.63;;;-24.94;63.17
71697;BME280;68167;59.120;37.898;2024-01-06T04:02:12;99939.78;;;-24.82;62.72
71697;BME280;68167;59.120;37.898;2024-01-06T04:04:38;99876.28;;;-25.24;62.91
71697;BME280;68167;59.120;37.898;2024-01-06T04:07:05;99933.34;;;-24.93;62.97
71697;BME280;68167;59.120;37.898;2024-01-06T04:09:33;99924.03;;;-24.88;63.26
71697;BME280;68167;59.120;37.898;2024-01-06T04:11:59;99793.72;;;-25.73;63.28
71697;BME280;68167;59.120;37.898;2024-01-06T04:14:27;99959.72;;;-24.74;62.93
71697;BME280;68167;59.120;37.898;2024-01-06T04:16:53;99955.56;;;-24.77;63.18
71697;BME280;68167;59.120;37.898;2024-01-06T04:19:21;99895.28;;;-25.12;63.20
71697;BME280;68167;59.120;37.898;2024-01-06T04:21:48;99953.00;;;-24.73;63.24
71697;BME280;68167;59.120;37.898;2024-01-06T04:24:15;99956.19;;;-24.67;63.48
71697;BME280;68167;59.120;37.898;2024-01-06T04:26:41;99920.81;;;-24.95;63.38
71697;BME280;68167;59.120;37.898;2024-01-06T04:29:11;99900.09;;;-25.03;63.47
71697;BME280;68167;59.120;37.898;2024-01-06T04:31:39;99952.75;;;-24.63;63.54
71697;BME280;68167;59.120;37.898;2024-01-06T04:34:05;99954.22;;;-24.54;64.14
71697;BME280;68167;59.120;37.898;2024-01-06T04:36:31;99968.09;;;-24.38;64.32
71697;BME280;68167;59.120;37.898;2024-01-06T04:38:57;99862.13;;;-24.89;64.22
71697;BME280;68167;59.120;37.898;2024-01-06T04:41:24;99895.69;;;-24.58;64.28
71697;BME280;68167;59.120;37.898;2024-01-06T04:43:50;99921.16;;;-24.36;64.62
71697;BME280;68167;59.120;37.898;2024-01-06T04:46:16;99858.41;;;-24.73;64.39
71697;BME280;68167;59.120;37.898;2024-01-06T04:48:43;99975.59;;;-24.02;64.40
71697;BME280;68167;59.120;37.898;2024-01-06T04:51:09;99894.47;;;-24.42;64.36
71697;BME280;68167;59.120;37.898;2024-01-06T04:53:38;99963.66;;;-23.93;64.60
71697;BME280;68167;59.120;37.898;2024-01-06T04:56:04;99935.56;;;-24.09;64.02
71697;BME280;68167;59.120;37.898;2024-01-06T04:58:30;99888.66;;;-24.44;63.40
71697;BME280;68167;59.120;37.898;2024-01-06T05:00:57;99961.19;;;-23.96;64.05
71697;BME280;68167;59.120;37.898;2024-01-06T05:03:23;99955.59;;;-24.05;63.46
71697;BME280;68167;59.120;37.898;2024-01-06T05:05:50;99958.84;;;-24.02;63.83
71697;BME280;68167;59.120;37.898;2024-01-06T05:08:16;99924.78;;;-24.14;64.03
71697;BME280;68167;59.120;37.898;2024-01-06T05:10:44;99965.94;;;-23.84;64.51
71697;BME280;68167;59.120;37.898;2024-01-06T05:13:13;99894.84;;;-24.23;64.45
71697;BME280;68167;59.120;37.898;2024-01-06T05:15:39;99921.09;;;-24.00;64.63
71697;BME280;68167;59.120;37.898;2024-01-06T05:18:05;99959.78;;;-23.72;64.31
71697;BME280;68167;59.120;37.898;2024-01-06T05:20:32;99883.78;;;-24.16;64.29
71697;BME280;68167;59.120;37.898;2024-01-06T05:22:58;99888.91;;;-24.20;63.75
71697;BME280;68167;59.120;37.898;2024-01-06T05:25:24;99941.72;;;-23.88;63.39
71697;BME280;68167;59.120;37.898;2024-01-06T05:27:50;99939.34;;;-23.94;63.58
71697;BME280;68167;59.120;37.898;2024-01-06T05:30:17;99958.34;;;-23.82;63.89
71697;BME280;68167;59.120;37.898;2024-01-06T05:32:44;99951.91;;;-23.92;63.40
71697;BME280;68167;59.120;37.898;2024-01-06T05:35:11;99922.13;;;-24.08;63.51
71697;BME280;68167;59.120;37.898;2024-01-06T05:37:37;99924.59;;;-24.06;63.71
71697;BME280;68167;59.120;37.898;2024-01-06T05:40:04;99893.28;;;-24.27;63.58
71697;BME280;68167;59.120;37.898;2024-01-06T05:42:32;99900.53;;;-24.16;64.46
71697;BME280;68167;59.120;37.898;2024-01-06T05:44:59;99911.25;;;-24.08;64.24
71697;BME280;68167;59.120;37.898;2024-01-06T05:47:25;99964.84;;;-23.74;64.42
71697;BME280;68167;59.120;37.898;2024-01-06T05:49:52;99931.66;;;-23.88;64.03
71697;BME280;68167;59.120;37.898;2024-01-06T05:52:18;99917.69;;;-23.99;63.77
71697;BME280;68167;59.120;37.898;2024-01-06T05:54:45;99976.59;;;-23.74;63.34
71697;BME280;68167;59.120;37.898;2024-01-06T05:57:11;99951.91;;;-23.92;63.06
71697;BME280;68167;59.120;37.898;2024-01-06T05:59:38;99954.44;;;-23.94;63.01
71697;BME280;68167;59.120;37.898;2024-01-06T06:02:04;99958.66;;;-23.94;63.08
71697;BME280;68167;59.120;37.898;2024-01-06T06:04:30;99900.88;;;-24.28;62.85
71697;BME280;68167;59.120;37.898;2024-01-06T06:06:57;99910.78;;;-24.24;63.07
71697;BME280;68167;59.120;37.898;2024-01-06T06:09:23;99887.88;;;-24.46;62.78
71697;BME280;68167;59.120;37.898;2024-01-06T06:11:50;99959.66;;;-24.01;62.84
71697;BME280;68167;59.120;37.898;2024-01-06T06:14:16;99936.63;;;-24.19;62.69
71697;BME280;68167;59.120;37.898;2024-01-06T06:16:43;99967.19;;;-24.01;62.76
71697;BME280;68167;59.120;37.898;2024-01-06T06:19:09;99928.59;;;-24.31;62.72
71697;BME280;68167;59.120;37.898;2024-01-06T06:21:36;99903.75;;;-24.44;62.46
71697;BME280;68167;59.120;37.898;2024-01-06T06:24:03;99939.47;;;-24.31;62.87
71697;BME280;68167;59.120;37.898;2024-01-06T06:26:29;99970.78;;;-24.10;62.52
71697;BME280;68167;59.120;37.898;2024-01-06T06:28:56;99951.88;;;-24.25;63.05
71697;BME280;68167;59.120;37.898;2024-01-06T06:31:22;99980.03;;;-24.11;62.41
71697;BME280;68167;59.120;37.898;2024-01-06T06:33:48;99919.88;;;-24.54;62.41
71697;BME280;68167;59.120;37.898;2024-01-06T06:36:14;99964.56;;;-24.29;62.35
71697;BME280;68167;59.120;37.898;2024-01-06T06:38:41;99964.72;;;-24.37;62.43
71697;BME280;68167;59.120;37.898;2024-01-06T06:41:07;99968.75;;;-24.30;62.96
71697;BME280;68167;59.120;37.898;2024-01-06T06:43:33;99985.44;;;-24.26;62.93
71697;BME280;68167;59.120;37.898;2024-01-06T06:45:59;99984.66;;;-24.29;63.10
71697;BME280;68167;59.120;37.898;2024-01-06T06:48:26;100002.91;;;-24.23;62.70
71697;BME280;68167;59.120;37.898;2024-01-06T06:50:52;100000.22;;;-24.15;63.02
71697;BME280;68167;59.120;37.898;2024-01-06T06:53:18;100005.28;;;-24.17;62.96
71697;BME280;68167;59.120;37.898;2024-01-06T06:55:44;99970.25;;;-24.23;63.20
71697;BME280;68167;59.120;37.898;2024-01-06T06:58:11;99926.50;;;-24.50;62.91
71697;BME280;68167;59.120;37.898;2024-01-06T07:00:38;99994.28;;;-24.11;63.14
71697;BME280;68167;59.120;37.898;2024-01-06T07:03:04;100019.97;;;-24.00;62.55
71697;BME280;68167;59.120;37.898;2024-01-06T07:05:31;99938.19;;;-24.49;62.89
71697;BME280;68167;59.120;37.898;2024-01-06T07:08:00;100018.56;;;-24.10;62.66
71697;BME280;68167;59.120;37.898;2024-01-06T07:10:26;100014.47;;;-24.14;62.19
71697;BME280;68167;59.120;37.898;2024-01-06T07:12:52;99983.19;;;-24.38;62.14
71697;BME280;68167;59.120;37.898;2024-01-06T07:15:19;100014.78;;;-24.28;62.10
71697;BME280;68167;59.120;37.898;2024-01-06T07:17:45;100019.75;;;-24.25;62.36
71697;BME280;68167;59.120;37.898;2024-01-06T07:20:12;100019.94;;;-24.34;62.48
71697;BME280;68167;59.120;37.898;2024-01-06T07:22:38;100028.09;;;-24.24;62.94
71697;BME280;68167;59.120;37.898;2024-01-06T07:25:05;100000.69;;;-24.33;63.01
71697;BME280;68167;59.120;37.898;2024-01-06T07:27:32;99985.06;;;-24.48;62.85
71697;BME280;68167;59.120;37.898;2024-01-06T07:29:58;100025.50;;;-24.21;63.13
71697;BME280;68167;59.120;37.898;2024-01-06T07:32:24;100030.38;;;-24.14;63.31
71697;BME280;68167;59.120;37.898;2024-01-06T07:34:51;99985.69;;;-24.38;63.54
71697;BME280;68167;59.120;37.898;2024-01-06T07:37:17;100028.50;;;-24.05;63.46
71697;BME280;68167;59.120;37.898;2024-01-06T07:39:43;99989.59;;;-24.25;63.59
71697;BME280;68167;59.120;37.898;2024-01-06T07:42:09;100022.41;;;-23.97;63.57
71697;BME280;68167;59.120;37.898;2024-01-06T07:44:36;100038.84;;;-23.82;63.79
71697;BME280;68167;59.120;37.898;2024-01-06T07:47:02;99990.16;;;-24.14;63.78
71697;BME280;68167;59.120;37.898;2024-01-06T07:49:31;100051.16;;;-23.71;63.17
71697;BME280;68167;59.120;37.898;2024-01-06T07:51:57;99996.50;;;-24.00;63.68
71697;BME280;68167;59.120;37.898;2024-01-06T07:54:24;100061.00;;;-23.62;63.30
71697;BME280;68167;59.120;37.898;2024-01-06T07:56:50;99993.06;;;-23.96;63.54
71697;BME280;68167;59.120;37.898;2024-01-06T07:59:16;100031.03;;;-23.71;63.42
71697;BME280;68167;59.120;37.898;2024-01-06T08:01:43;100065.06;;;-23.57;63.15
71697;BME280;68167;59.120;37.898;2024-01-06T08:04:09;99976.66;;;-24.10;62.71
71697;BME280;68167;59.120;37.898;2024-01-06T08:06:36;99999.00;;;-23.99;62.72
71697;BME280;68167;59.120;37.898;2024-01-06T08:09:02;100060.06;;;-23.58;63.40
71697;BME280;68167;59.120;37.898;2024-01-06T08:11:29;100075.06;;;-23.54;62.99
71697;BME280;68167;59.120;37.898;2024-01-06T08:13:55;100051.91;;;-23.68;63.14
71697;BME280;68167;59.120;37.898;2024-01-06T08:16:21;100041.97;;;-23.73;62.86
71697;BME280;68167;59.120;37.898;2024-01-06T08:18:48;100060.88;;;-23.56;62.96
71697;BME280;68167;59.120;37.898;2024-01-06T08:21:14;100055.91;;;-23.59;62.90
71697;BME280;68167;59.120;37.898;2024-01-06T08:23:40;99952.63;;;-24.21;63.11
71697;BME280;68167;59.120;37.898;2024-01-06T08:26:06;100022.63;;;-23.70;64.16
71697;BME280;68167;59.120;37.898;2024-01-06T08:28:33;100054.94;;;-23.54;63.56
71697;BME280;68167;59.120;37.898;2024-01-06T08:31:00;100066.38;;;-23.42;63.42
71697;BME280;68167;59.120;37.898;2024-01-06T08:33:26;100068.91;;;-23.44;63.84
71697;BME280;68167;59.120;37.898;2024-01-06T08:35:53;100064.63;;;-23.40;64.01
71697;BME280;68167;59.120;37.898;2024-01-06T08:38:19;100064.66;;;-23.42;63.82
71697;BME280;68167;59.120;37.898;2024-01-06T08:40:48;100052.16;;;-23.45;63.96
71697;BME280;68167;59.120;37.898;2024-01-06T08:43:18;100075.88;;;-23.21;64.33
71697;BME280;68167;59.120;37.898;2024-01-06T08:45:45;100055.09;;;-23.29;64.04
71697;BME280;68167;59.120;37.898;2024-01-06T08:48:11;100021.13;;;-23.45;64.06
71697;BME280;68167;59.120;37.898;2024-01-06T08:50:39;100044.25;;;-23.31;64.18
71697;BME280;68167;59.120;37.898;2024-01-06T08:53:06;100069.00;;;-23.14;63.65
71697;BME280;68167;59.120;37.898;2024-01-06T08:55:32;99974.53;;;-23.58;64.40
71697;BME280;68167;59.120;37.898;2024-01-06T08:57:59;100067.91;;;-23.04;64.34
71697;BME280;68167;59.120;37.898;2024-01-06T09:00:25;100022.28;;;-23.26;63.74
71697;BME280;68167;59.120;37.898;2024-01-06T09:02:52;100046.16;;;-23.08;64.39
71697;BME280;68167;59.120;37.898;2024-01-06T09:05:18;100040.31;;;-23.09;64.56
71697;BME280;68167;59.120;37.898;2024-01-06T09:07:45;100067.47;;;-22.87;64.64
71697;BME280;68167;59.120;37.898;2024-01-06T09:10:17;100037.66;;;-23.04;64.05
71697;BME280;68167;59.120;37.898;2024-01-06T09:12:43;100096.41;;;-22.73;64.24
71697;BME280;68167;59.120;37.898;2024-01-06T09:15:10;100043.09;;;-22.87;64.00
71697;BME280;68167;59.120;37.898;2024-01-06T09:17:37;100095.91;;;-22.54;64.53
71697;BME280;68167;59.120;37.898;2024-01-06T09:20:03;100087.75;;;-22.64;64.59
71697;BME280;68167;59.120;37.898;2024-01-06T09:22:30;100022.19;;;-22.90;64.80
71697;BME280;68167;59.120;37.898;2024-01-06T09:24:58;100095.63;;;-22.44;64.35
71697;BME280;68167;59.120;37.898;2024-01-06T09:27:25;100084.56;;;-22.40;63.94
71697;BME280;68167;59.120;37.898;2024-01-06T09:29:52;100044.88;;;-22.62;64.53
71697;BME280;68167;59.120;37.898;2024-01-06T09:32:18;100060.50;;;-22.50;63.64
71697;BME280;68167;59.120;37.898;2024-01-06T09:34:44;100008.16;;;-22.71;63.85
71697;BME280;68167;59.120;37.898;2024-01-06T09:37:11;100087.91;;;-22.10;65.07
71697;BME280;68167;59.120;37.898;2024-01-06T09:39:38;100013.47;;;-22.51;64.64
71697;BME280;68167;59.120;37.898;2024-01-06T09:42:05;100075.63;;;-22.20;63.78
71697;BME280;68167;59.120;37.898;2024-01-06T09:44:32;100024.28;;;-22.47;63.97
71697;BME280;68167;59.120;37.898;2024-01-06T09:47:01;100038.84;;;-22.27;65.05
71697;BME280;68167;59.120;37.898;2024-01-06T09:49:28;100039.34;;;-22.16;64.80
71697;BME280;68167;59.120;37.898;2024-01-06T09:51:58;100067.22;;;-21.94;64.45
71697;BME280;68167;59.120;37.898;2024-01-06T09:54:29;100032.75;;;-22.20;64.57
71697;BME280;68167;59.120;37.898;2024-01-06T09:57:01;100078.00;;;-21.89;64.62
71697;BME280;68167;59.120;37.898;2024-01-06T09:59:28;100029.38;;;-21.94;64.93
71697;BME280;68167;59.120;37.898;2024-01-06T10:02:00;100030.78;;;-21.86;64.93
71697;BME280;68167;59.120;37.898;2024-01-06T10:04:28;100052.34;;;-21.76;64.05
71697;BME280;68167;59.120;37.898;2024-01-06T10:06:54;100013.81;;;-22.07;63.26
71697;BME280;68167;59.120;37.898;2024-01-06T10:09:27;100069.28;;;-21.79;63.75
71697;BME280;68167;59.120;37.898;2024-01-06T10:11:56;100091.84;;;-21.75;63.81
71697;BME280;68167;59.120;37.898;2024-01-06T10:14:25;100065.16;;;-21.82;63.63
71697;BME280;68167;59.120;37.898;2024-01-06T10:16:52;100075.28;;;-21.83;63.85
71697;BME280;68167;59.120;37.898;2024-01-06T10:19:19;100058.59;;;-21.87;63.80
71697;BME280;68167;59.120;37.898;2024-01-06T10:21:46;100055.16;;;-21.85;64.04
71697;BME280;68167;59.120;37.898;2024-01-06T10:24:12;100052.41;;;-21.77;63.87
71697;BME280;68167;59.120;37.898;2024-01-06T10:26:39;100075.66;;;-21.67;64.50
71697;BME280;68167;59.120;37.898;2024-01-06T10:29:08;99972.50;;;-22.29;64.47
71697;BME280;68167;59.120;37.898;2024-01-06T10:31:34;100069.63;;;-21.63;64.64
71697;BME280;68167;59.120;37.898;2024-01-06T10:34:01;99992.06;;;-22.10;64.49
71697;BME280;68167;59.120;37.898;2024-01-06T10:36:28;100081.25;;;-21.58;64.16
71697;BME280;68167;59.120;37.898;2024-01-06T10:38:55;100076.06;;;-21.53;64.22
71697;BME280;68167;59.120;37.898;2024-01-06T10:41:23;100011.34;;;-21.82;64.58
71697;BME280;68167;59.120;37.898;2024-01-06T10:43:51;100008.81;;;-21.82;64.68
71697;BME280;68167;59.120;37.898;2024-01-06T10:46:19;99971.38;;;-22.21;64.03
71697;BME280;68167;59.120;37.898;2024-01-06T10:48:46;100010.72;;;-22.15;62.99
71697;BME280;68167;59.120;37.898;2024-01-06T10:51:13;100052.44;;;-22.05;63.34
71697;BME280;68167;59.120;37.898;2024-01-06T10:53:41;100096.44;;;-21.87;63.41
71697;BME280;68167;59.120;37.898;2024-01-06T10:56:09;100085.81;;;-21.97;63.57
71697;BME280;68167;59.120;37.898;2024-01-06T10:58:37;100001.63;;;-22.49;64.33
71697;BME280;68167;59.120;37.898;2024-01-06T11:01:12;100063.13;;;-21.98;64.63
71697;BME280;68167;59.120;37.898;2024-01-06T11:03:39;99985.56;;;-22.45;64.05
71697;BME280;68167;59.120;37.898;2024-01-06T11:06:06;100069.13;;;-22.01;64.30
71697;BME280;68167;59.120;37.898;2024-01-06T11:08:46;100073.97;;;-21.95;64.02
71697;BME280;68167;59.120;37.898;2024-01-06T11:11:19;100059.19;;;-22.06;64.78
71697;BME280;68167;59.120;37.898;2024-01-06T11:13:47;100094.66;;;-21.84;64.08
71697;BME280;68167;59.120;37.898;2024-01-06T11:16:35;99999.16;;;-22.50;64.58
71697;BME280;68167;59.120;37.898;2024-01-06T11:19:03;100015.59;;;-22.37;64.68
71697;BME280;68167;59.120;37.898;2024-01-06T11:21:49;100094.16;;;-21.95;64.33
71697;BME280;68167;59.120;37.898;2024-01-06T11:24:20;100099.94;;;-21.91;64.36
71697;BME280;68167;59.120;37.898;2024-01-06T11:26:51;99995.91;;;-22.54;64.72
71697;BME280;68167;59.120;37.898;2024-01-06T11:29:21;100058.09;;;-22.25;63.13
71697;BME280;68167;59.120;37.898;2024-01-06T11:34:53;100112.53;;;-22.18;63.22
71697;BME280;68167;59.120;37.898;2024-01-06T11:37:50;100049.09;;;-22.63;63.73
71697;BME280;68167;59.120;37.898;2024-01-06T11:42:48;100100.47;;;-22.38;64.13
71697;BME280;68167;59.120;37.898;2024-01-06T11:45:14;100097.22;;;-22.41;64.40
71697;BME280;68167;59.120;37.898;2024-01-06T11:47:48;100125.19;;;-22.19;64.22
71697;BME280;68167;59.120;37.898;2024-01-06T11:50:16;100096.97;;;-22.32;64.15
71697;BME280;68167;59.120;37.898;2024-01-06T11:52:44;100105.13;;;-22.24;64.18
71697;BME280;68167;59.120;37.898;2024-01-06T11:55:10;100006.09;;;-22.85;64.71
71697;BME280;68167;59.120;37.898;2024-01-06T11:57:37;100117.53;;;-22.16;64.14
71697;BME280;68167;59.120;37.898;2024-01-06T12:00:05;100121.72;;;-22.15;64.62
71697;BME280;68167;59.120;37.898;2024-01-06T12:02:33;100119.44;;;-22.24;63.73
71697;BME280;68167;59.120;37.898;2024-01-06T12:05:00;100078.72;;;-22.71;62.59
71697;BME280;68167;59.120;37.898;2024-01-06T12:07:26;100052.00;;;-23.06;62.62
71697;BME280;68167;59.120;37.898;2024-01-06T12:10:01;100067.00;;;-23.01;62.72
71697;BME280;68167;59.120;37.898;2024-01-06T12:12:31;100072.31;;;-23.12;62.69
71697;BME280;68167;59.120;37.898;2024-01-06T12:14:58;100061.72;;;-23.25;63.14
71697;BME280;68167;59.120;37.898;2024-01-06T12:17:28;100137.31;;;-22.94;63.39
71697;BME280;68167;59.120;37.898;2024-01-06T12:19:55;100112.72;;;-23.17;62.48
71697;BME280;68167;59.120;37.898;2024-01-06T12:22:21;100112.88;;;-23.24;62.74
71697;BME280;68167;59.120;37.898;2024-01-06T12:24:51;100142.75;;;-23.09;63.44
71697;BME280;68167;59.120;37.898;2024-01-06T12:27:17;100130.38;;;-23.18;63.57
71697;BME280;68167;59.120;37.898;2024-01-06T12:29:44;100152.88;;;-23.12;63.46
71697;BME280;68167;59.120;37.898;2024-01-06T12:32:11;100087.69;;;-23.55;63.42
71697;BME280;68167;59.120;37.898;2024-01-06T12:34:40;100135.34;;;-23.15;63.45
71697;BME280;68167;59.120;37.898;2024-01-06T12:37:06;100149.38;;;-23.07;63.22
71697;BME280;68167;59.120;37.898;2024-01-06T12:39:34;100149.44;;;-23.08;64.01